Terminal Aerodrome Forecast
Issued by NWS

Home | Current Version | Previous Version | Text Only | Print | Product List | Glossary On
Versions: 1 2 3 4 5 6 7 8 9 10 11 12 13 14 15 16 17
906
FTUS46 KSTO 221100
TAFSAC
TAF
KSAC 221123Z 2212/2312 16005KT P6SM VCSH BKN060 BKN100
     FM221600 20007KT P6SM SCT070 BKN120
     FM222300 19012G20KT P6SM BKN120=

USA.gov is the U.S. government's official web portal to all federal, state and local government web resources and services.